sensor_id;sensor_type;location;lat;lon;timestamp;P1;durP1;ratioP1;P2;durP2;ratioP2
13651;SDS011;6899;51.546;6.912;2023-04-03T00:00:51;11.57;;;8.93;;
13651;SDS011;6899;51.546;6.912;2023-04-03T00:03:18;11.43;;;8.33;;
13651;SDS011;6899;51.546;6.912;2023-04-03T00:05:45;12.03;;;8.13;;
13651;SDS011;6899;51.546;6.912;2023-04-03T00:08:12;11.23;;;7.37;;
13651;SDS011;6899;51.546;6.912;2023-04-03T00:10:41;11.97;;;9.23;;
13651;SDS011;6899;51.546;6.912;2023-04-03T00:13:08;13.60;;;9.47;;
13651;SDS011;6899;51.546;6.912;2023-04-03T00:15:36;11.63;;;9.50;;
13651;SDS011;6899;51.546;6.912;2023-04-03T00:18:03;13.43;;;9.90;;
13651;SDS011;6899;51.546;6.912;2023-04-03T00:20:31;12.93;;;9.33;;
13651;SDS011;6899;51.546;6.912;2023-04-03T00:22:58;15.87;;;11.07;;
13651;SDS011;6899;51.546;6.912;2023-04-03T00:25:26;15.50;;;10.70;;
13651;SDS011;6899;51.546;6.912;2023-04-03T00:27:54;12.23;;;9.30;;
13651;SDS011;6899;51.546;6.912;2023-04-03T00:30:21;15.87;;;11.10;;
13651;SDS011;6899;51.546;6.912;2023-04-03T00:32:49;15.40;;;11.70;;
13651;SDS011;6899;51.546;6.912;2023-04-03T00:35:17;16.20;;;10.47;;
13651;SDS011;6899;51.546;6.912;2023-04-03T00:37:45;13.57;;;9.33;;
13651;SDS011;6899;51.546;6.912;2023-04-03T00:40:12;15.40;;;10.77;;
13651;SDS011;6899;51.546;6.912;2023-04-03T00:42:41;15.27;;;10.90;;
13651;SDS011;6899;51.546;6.912;2023-04-03T00:45:27;16.80;;;10.87;;
13651;SDS011;6899;51.546;6.912;2023-04-03T00:48:06;16.93;;;12.27;;
13651;SDS011;6899;51.546;6.912;2023-04-03T00:50:37;14.30;;;10.93;;
13651;SDS011;6899;51.546;6.912;2023-04-03T00:53:06;21.80;;;11.73;;
13651;SDS011;6899;51.546;6.912;2023-04-03T00:55:37;13.40;;;9.77;;
13651;SDS011;6899;51.546;6.912;2023-04-03T00:58:05;15.20;;;10.60;;
13651;SDS011;6899;51.546;6.912;2023-04-03T01:00:38;13.47;;;10.20;;
13651;SDS011;6899;51.546;6.912;2023-04-03T01:03:09;14.97;;;9.90;;
13651;SDS011;6899;51.546;6.912;2023-04-03T01:05:36;15.20;;;10.03;;
13651;SDS011;6899;51.546;6.912;2023-04-03T01:08:03;14.30;;;9.90;;
13651;SDS011;6899;51.546;6.912;2023-04-03T01:10:31;12.90;;;9.57;;
13651;SDS011;6899;51.546;6.912;2023-04-03T01:12:58;12.87;;;10.03;;
13651;SDS011;6899;51.546;6.912;2023-04-03T01:15:26;12.83;;;9.33;;
13651;SDS011;6899;51.546;6.912;2023-04-03T01:17:57;13.23;;;8.43;;
13651;SDS011;6899;51.546;6.912;2023-04-03T01:23:46;12.80;;;8.47;;
13651;SDS011;6899;51.546;6.912;2023-04-03T01:26:23;11.33;;;7.43;;
13651;SDS011;6899;51.546;6.912;2023-04-03T01:28:52;11.20;;;7.30;;
13651;SDS011;6899;51.546;6.912;2023-04-03T01:31:22;9.73;;;6.40;;
13651;SDS011;6899;51.546;6.912;2023-04-03T01:33:53;11.60;;;6.73;;
13651;SDS011;6899;51.546;6.912;2023-04-03T01:36:21;10.87;;;6.43;;
13651;SDS011;6899;51.546;6.912;2023-04-03T01:38:50;10.60;;;6.90;;
13651;SDS011;6899;51.546;6.912;2023-04-03T01:41:17;11.90;;;6.17;;
13651;SDS011;6899;51.546;6.912;2023-04-03T01:43:48;10.10;;;6.60;;
13651;SDS011;6899;51.546;6.912;2023-04-03T01:46:15;7.77;;;5.43;;
13651;SDS011;6899;51.546;6.912;2023-04-03T01:48:42;11.00;;;5.07;;
13651;SDS011;6899;51.546;6.912;2023-04-03T01:51:10;10.87;;;5.20;;
13651;SDS011;6899;51.546;6.912;2023-04-03T01:53:37;10.33;;;4.93;;
13651;SDS011;6899;51.546;6.912;2023-04-03T01:56:05;11.93;;;4.97;;
13651;SDS011;6899;51.546;6.912;2023-04-03T01:58:32;8.37;;;4.87;;
13651;SDS011;6899;51.546;6.912;2023-04-03T02:00:59;9.30;;;4.47;;
13651;SDS011;6899;51.546;6.912;2023-04-03T02:03:26;6.90;;;4.00;;
13651;SDS011;6899;51.546;6.912;2023-04-03T02:05:53;11.43;;;4.40;;
13651;SDS011;6899;51.546;6.912;2023-04-03T02:08:21;19.47;;;4.53;;
13651;SDS011;6899;51.546;6.912;2023-04-03T02:10:48;8.90;;;4.30;;
13651;SDS011;6899;51.546;6.912;2023-04-03T02:13:15;9.50;;;4.47;;
13651;SDS011;6899;51.546;6.912;2023-04-03T02:15:43;8.37;;;4.50;;
13651;SDS011;6899;51.546;6.912;2023-04-03T02:18:10;8.17;;;4.17;;
13651;SDS011;6899;51.546;6.912;2023-04-03T02:20:39;8.70;;;4.03;;
13651;SDS011;6899;51.546;6.912;2023-04-03T02:23:06;10.47;;;3.60;;
13651;SDS011;6899;51.546;6.912;2023-04-03T02:25:35;11.00;;;3.47;;
13651;SDS011;6899;51.546;6.912;2023-04-03T02:28:02;6.80;;;3.60;;
13651;SDS011;6899;51.546;6.912;2023-04-03T02:30:28;4.87;;;3.10;;
13651;SDS011;6899;51.546;6.912;2023-04-03T02:32:55;8.50;;;3.20;;
13651;SDS011;6899;51.546;6.912;2023-04-03T02:35:22;5.67;;;3.07;;
13651;SDS011;6899;51.546;6.912;2023-04-03T02:37:49;7.83;;;3.10;;
13651;SDS011;6899;51.546;6.912;2023-04-03T02:40:16;9.60;;;3.13;;
13651;SDS011;6899;51.546;6.912;2023-04-03T02:42:44;8.90;;;3.87;;
13651;SDS011;6899;51.546;6.912;2023-04-03T02:45:11;5.73;;;3.20;;
13651;SDS011;6899;51.546;6.912;2023-04-03T02:47:38;8.30;;;3.77;;
13651;SDS011;6899;51.546;6.912;2023-04-03T02:50:05;6.90;;;3.30;;
13651;SDS011;6899;51.546;6.912;2023-04-03T02:52:32;4.07;;;2.67;;
13651;SDS011;6899;51.546;6.912;2023-04-03T02:54:59;11.73;;;3.60;;
13651;SDS011;6899;51.546;6.912;2023-04-03T02:57:26;7.80;;;4.63;;
13651;SDS011;6899;51.546;6.912;2023-04-03T02:59:54;5.90;;;3.07;;
13651;SDS011;6899;51.546;6.912;2023-04-03T03:02:21;9.27;;;2.67;;
13651;SDS011;6899;51.546;6.912;2023-04-03T03:04:48;6.63;;;2.97;;
13651;SDS011;6899;51.546;6.912;2023-04-03T03:07:14;6.83;;;2.40;;
13651;SDS011;6899;51.546;6.912;2023-04-03T03:09:41;7.67;;;3.00;;
13651;SDS011;6899;51.546;6.912;2023-04-03T03:12:08;7.67;;;2.80;;
13651;SDS011;6899;51.546;6.912;2023-04-03T03:14:35;7.03;;;2.80;;
13651;SDS011;6899;51.546;6.912;2023-04-03T03:17:03;8.53;;;2.73;;
13651;SDS011;6899;51.546;6.912;2023-04-03T03:19:30;5.37;;;2.70;;
13651;SDS011;6899;51.546;6.912;2023-04-03T03:21:57;3.67;;;2.60;;
13651;SDS011;6899;51.546;6.912;2023-04-03T03:24:24;6.00;;;2.43;;
13651;SDS011;6899;51.546;6.912;2023-04-03T03:26:51;5.17;;;2.77;;
13651;SDS011;6899;51.546;6.912;2023-04-03T03:29:18;5.27;;;2.63;;
13651;SDS011;6899;51.546;6.912;2023-04-03T03:31:44;9.10;;;2.53;;
13651;SDS011;6899;51.546;6.912;2023-04-03T03:34:13;6.07;;;2.77;;
13651;SDS011;6899;51.546;6.912;2023-04-03T03:36:39;6.17;;;2.70;;
13651;SDS011;6899;51.546;6.912;2023-04-03T03:39:06;4.37;;;2.50;;
13651;SDS011;6899;51.546;6.912;2023-04-03T03:41:34;7.53;;;2.73;;
13651;SDS011;6899;51.546;6.912;2023-04-03T03:44:01;6.37;;;2.87;;
13651;SDS011;6899;51.546;6.912;2023-04-03T03:46:28;5.43;;;2.90;;
13651;SDS011;6899;51.546;6.912;2023-04-03T03:48:55;6.23;;;2.73;;
13651;SDS011;6899;51.546;6.912;2023-04-03T03:51:23;6.87;;;3.13;;
13651;SDS011;6899;51.546;6.912;2023-04-03T03:53:50;7.50;;;3.00;;
13651;SDS011;6899;51.546;6.912;2023-04-03T03:56:17;7.50;;;2.90;;
13651;SDS011;6899;51.546;6.912;2023-04-03T03:58:44;10.80;;;3.07;;
13651;SDS011;6899;51.546;6.912;2023-04-03T04:01:10;4.37;;;2.70;;
13651;SDS011;6899;51.546;6.912;2023-04-03T04:03:37;4.83;;;2.73;;
13651;SDS011;6899;51.546;6.912;2023-04-03T04:06:04;6.83;;;2.67;;
13651;SDS011;6899;51.546;6.912;2023-04-03T04:08:33;9.20;;;2.80;;
13651;SDS011;6899;51.546;6.912;2023-04-03T04:10:59;5.27;;;2.63;;
13651;SDS011;6899;51.546;6.912;2023-04-03T04:13:26;9.30;;;2.57;;
13651;SDS011;6899;51.546;6.912;2023-04-03T04:15:53;7.63;;;2.93;;
13651;SDS011;6899;51.546;6.912;2023-04-03T04:18:20;3.30;;;2.37;;
13651;SDS011;6899;51.546;6.912;2023-04-03T04:20:47;9.13;;;2.73;;
13651;SDS011;6899;51.546;6.912;2023-04-03T04:23:15;4.57;;;2.30;;
13651;SDS011;6899;51.546;6.912;2023-04-03T04:25:45;6.93;;;3.07;;
13651;SDS011;6899;51.546;6.912;2023-04-03T04:28:12;8.57;;;3.40;;
13651;SDS011;6899;51.546;6.912;2023-04-03T04:30:40;9.77;;;2.63;;
13651;SDS011;6899;51.546;6.912;2023-04-03T04:33:07;8.70;;;3.90;;
13651;SDS011;6899;51.546;6.912;2023-04-03T04:35:34;8.03;;;2.93;;
13651;SDS011;6899;51.546;6.912;2023-04-03T04:38:01;7.57;;;3.00;;
13651;SDS011;6899;51.546;6.912;2023-04-03T04:40:28;10.87;;;3.53;;
13651;SDS011;6899;51.546;6.912;2023-04-03T04:42:56;11.67;;;3.37;;
13651;SDS011;6899;51.546;6.912;2023-04-03T04:45:23;6.70;;;3.33;;
13651;SDS011;6899;51.546;6.912;2023-04-03T04:47:50;8.80;;;3.33;;
13651;SDS011;6899;51.546;6.912;2023-04-03T04:50:18;6.47;;;2.87;;
13651;SDS011;6899;51.546;6.912;2023-04-03T04:52:44;5.63;;;3.30;;
13651;SDS011;6899;51.546;6.912;2023-04-03T04:55:11;9.10;;;3.63;;
13651;SDS011;6899;51.546;6.912;2023-04-03T04:57:38;8.30;;;2.90;;
13651;SDS011;6899;51.546;6.912;2023-04-03T05:00:07;6.33;;;3.10;;
13651;SDS011;6899;51.546;6.912;2023-04-03T05:02:35;6.93;;;3.00;;
13651;SDS011;6899;51.546;6.912;2023-04-03T05:05:02;8.93;;;3.03;;
13651;SDS011;6899;51.546;6.912;2023-04-03T05:07:29;9.73;;;3.73;;
13651;SDS011;6899;51.546;6.912;2023-04-03T05:09:56;9.87;;;3.67;;
13651;SDS011;6899;51.546;6.912;2023-04-03T05:12:22;12.10;;;3.57;;
13651;SDS011;6899;51.546;6.912;2023-04-03T05:14:49;8.90;;;3.20;;
13651;SDS011;6899;51.546;6.912;2023-04-03T05:17:18;9.63;;;3.27;;
13651;SDS011;6899;51.546;6.912;2023-04-03T05:19:45;7.77;;;3.43;;
13651;SDS011;6899;51.546;6.912;2023-04-03T05:22:12;8.57;;;3.50;;
13651;SDS011;6899;51.546;6.912;2023-04-03T05:24:38;5.50;;;3.20;;
13651;SDS011;6899;51.546;6.912;2023-04-03T05:27:05;7.73;;;3.07;;
13651;SDS011;6899;51.546;6.912;2023-04-03T05:29:32;7.37;;;2.97;;
13651;SDS011;6899;51.546;6.912;2023-04-03T05:31:59;6.93;;;3.30;;
13651;SDS011;6899;51.546;6.912;2023-04-03T05:34:27;9.27;;;3.17;;
13651;SDS011;6899;51.546;6.912;2023-04-03T05:36:54;9.03;;;3.37;;
13651;SDS011;6899;51.546;6.912;2023-04-03T05:39:21;8.20;;;3.60;;
13651;SDS011;6899;51.546;6.912;2023-04-03T05:41:49;9.57;;;4.00;;
13651;SDS011;6899;51.546;6.912;2023-04-03T05:44:16;12.90;;;4.60;;
13651;SDS011;6899;51.546;6.912;2023-04-03T05:46:42;10.23;;;4.77;;
13651;SDS011;6899;51.546;6.912;2023-04-03T05:49:09;10.33;;;4.73;;
13651;SDS011;6899;51.546;6.912;2023-04-03T05:51:38;11.53;;;4.60;;
13651;SDS011;6899;51.546;6.912;2023-04-03T05:54:06;11.77;;;3.90;;
13651;SDS011;6899;51.546;6.912;2023-04-03T05:56:38;7.23;;;3.00;;
13651;SDS011;6899;51.546;6.912;2023-04-03T05:59:05;8.67;;;3.27;;
13651;SDS011;6899;51.546;6.912;2023-04-03T06:01:32;7.80;;;2.83;;
13651;SDS011;6899;51.546;6.912;2023-04-03T06:03:59;7.63;;;2.70;;
13651;SDS011;6899;51.546;6.912;2023-04-03T06:06:26;8.17;;;2.73;;
13651;SDS011;6899;51.546;6.912;2023-04-03T06:09:11;6.03;;;2.47;;
13651;SDS011;6899;51.546;6.912;2023-04-03T06:11:38;5.33;;;2.20;;
13651;SDS011;6899;51.546;6.912;2023-04-03T06:14:05;9.05;;;3.13;;
13651;SDS011;6899;51.546;6.912;2023-04-03T06:16:33;5.57;;;2.40;;
13651;SDS011;6899;51.546;6.912;2023-04-03T06:19:00;6.10;;;2.83;;
13651;SDS011;6899;51.546;6.912;2023-04-03T06:21:27;4.63;;;2.28;;
13651;SDS011;6899;51.546;6.912;2023-04-03T06:23:56;6.63;;;2.55;;
13651;SDS011;6899;51.546;6.912;2023-04-03T06:26:23;7.93;;;2.58;;
13651;SDS011;6899;51.546;6.912;2023-04-03T06:28:50;3.90;;;2.25;;
13651;SDS011;6899;51.546;6.912;2023-04-03T06:31:17;6.07;;;2.50;;
13651;SDS011;6899;51.546;6.912;2023-04-03T06:33:43;9.55;;;2.30;;
13651;SDS011;6899;51.546;6.912;2023-04-03T06:36:10;4.85;;;2.25;;
13651;SDS011;6899;51.546;6.912;2023-04-03T06:38:38;5.60;;;2.15;;
13651;SDS011;6899;51.546;6.912;2023-04-03T06:41:06;6.70;;;2.92;;
13651;SDS011;6899;51.546;6.912;2023-04-03T06:43:33;6.68;;;2.65;;
13651;SDS011;6899;51.546;6.912;2023-04-03T06:46:00;6.47;;;2.50;;
13651;SDS011;6899;51.546;6.912;2023-04-03T06:48:27;4.15;;;2.47;;
13651;SDS011;6899;51.546;6.912;2023-04-03T06:50:53;4.30;;;2.38;;
13651;SDS011;6899;51.546;6.912;2023-04-03T06:53:20;6.30;;;2.08;;
13651;SDS011;6899;51.546;6.912;2023-04-03T06:55:54;7.43;;;2.20;;
13651;SDS011;6899;51.546;6.912;2023-04-03T06:58:22;10.35;;;3.15;;
13651;SDS011;6899;51.546;6.912;2023-04-03T07:00:49;4.55;;;2.50;;
13651;SDS011;6899;51.546;6.912;2023-04-03T07:03:16;8.82;;;2.72;;
13651;SDS011;6899;51.546;6.912;2023-04-03T07:05:43;5.93;;;2.33;;
13651;SDS011;6899;51.546;6.912;2023-04-03T07:08:10;6.88;;;2.80;;
13651;SDS011;6899;51.546;6.912;2023-04-03T07:10:37;4.63;;;1.95;;
13651;SDS011;6899;51.546;6.912;2023-04-03T07:13:04;4.45;;;1.98;;
13651;SDS011;6899;51.546;6.912;2023-04-03T07:15:32;5.82;;;2.35;;
13651;SDS011;6899;51.546;6.912;2023-04-03T07:18:01;4.75;;;2.33;;
13651;SDS011;6899;51.546;6.912;2023-04-03T07:20:29;4.55;;;2.20;;
13651;SDS011;6899;51.546;6.912;2023-04-03T07:22:56;4.22;;;2.33;;
13651;SDS011;6899;51.546;6.912;2023-04-03T07:25:23;5.15;;;2.15;;
13651;SDS011;6899;51.546;6.912;2023-04-03T07:27:50;7.15;;;2.40;;
13651;SDS011;6899;51.546;6.912;2023-04-03T07:30:21;3.20;;;1.90;;
13651;SDS011;6899;51.546;6.912;2023-04-03T07:32:49;5.20;;;2.40;;
13651;SDS011;6899;51.546;6.912;2023-04-03T07:35:16;6.28;;;2.28;;
13651;SDS011;6899;51.546;6.912;2023-04-03T07:37:44;3.58;;;2.15;;
13651;SDS011;6899;51.546;6.912;2023-04-03T07:40:11;4.25;;;2.05;;
13651;SDS011;6899;51.546;6.912;2023-04-03T07:42:38;6.65;;;2.17;;
13651;SDS011;6899;51.546;6.912;2023-04-03T07:45:05;4.95;;;2.50;;
13651;SDS011;6899;51.546;6.912;2023-04-03T07:47:33;4.47;;;2.60;;
13651;SDS011;6899;51.546;6.912;2023-04-03T07:50:01;8.05;;;3.45;;
13651;SDS011;6899;51.546;6.912;2023-04-03T07:52:28;7.55;;;2.30;;
13651;SDS011;6899;51.546;6.912;2023-04-03T07:54:55;5.90;;;2.45;;
13651;SDS011;6899;51.546;6.912;2023-04-03T07:57:22;6.53;;;2.20;;
13651;SDS011;6899;51.546;6.912;2023-04-03T07:59:48;7.53;;;2.50;;
13651;SDS011;6899;51.546;6.912;2023-04-03T08:02:15;4.28;;;1.98;;
13651;SDS011;6899;51.546;6.912;2023-04-03T08:04:42;3.50;;;1.90;;
13651;SDS011;6899;51.546;6.912;2023-04-03T08:07:10;4.07;;;1.80;;
13651;SDS011;6899;51.546;6.912;2023-04-03T08:09:37;3.95;;;1.95;;
13651;SDS011;6899;51.546;6.912;2023-04-03T08:12:04;5.00;;;2.00;;
13651;SDS011;6899;51.546;6.912;2023-04-03T08:14:31;3.13;;;1.90;;
13651;SDS011;6899;51.546;6.912;2023-04-03T08:16:59;6.20;;;1.60;;
13651;SDS011;6899;51.546;6.912;2023-04-03T08:19:27;3.78;;;1.73;;
13651;SDS011;6899;51.546;6.912;2023-04-03T08:21:57;4.25;;;1.90;;
13651;SDS011;6899;51.546;6.912;2023-04-03T08:24:27;6.45;;;2.00;;
13651;SDS011;6899;51.546;6.912;2023-04-03T08:26:54;4.30;;;2.25;;
13651;SDS011;6899;51.546;6.912;2023-04-03T08:29:21;3.30;;;1.95;;
13651;SDS011;6899;51.546;6.912;2023-04-03T08:31:47;3.88;;;2.20;;
13651;SDS011;6899;51.546;6.912;2023-04-03T08:34:15;4.75;;;1.95;;
13651;SDS011;6899;51.546;6.912;2023-04-03T08:36:43;5.10;;;1.77;;
13651;SDS011;6899;51.546;6.912;2023-04-03T08:39:09;3.88;;;2.03;;
13651;SDS011;6899;51.546;6.912;2023-04-03T08:41:41;7.88;;;1.80;;
13651;SDS011;6899;51.546;6.912;2023-04-03T08:44:14;5.75;;;2.20;;
13651;SDS011;6899;51.546;6.912;2023-04-03T08:46:47;3.45;;;1.65;;
13651;SDS011;6899;51.546;6.912;2023-04-03T08:49:29;3.58;;;1.50;;
13651;SDS011;6899;51.546;6.912;2023-04-03T08:51:59;4.68;;;1.85;;
13651;SDS011;6899;51.546;6.912;2023-04-03T08:54:31;2.25;;;1.58;;
13651;SDS011;6899;51.546;6.912;2023-04-03T08:57:02;3.42;;;1.80;;
13651;SDS011;6899;51.546;6.912;2023-04-03T08:59:32;4.25;;;2.10;;
13651;SDS011;6899;51.546;6.912;2023-04-03T09:02:02;2.40;;;1.50;;
13651;SDS011;6899;51.546;6.912;2023-04-03T09:04:39;3.15;;;1.50;;
13651;SDS011;6899;51.546;6.912;2023-04-03T09:07:07;3.33;;;1.80;;
13651;SDS011;6899;51.546;6.912;2023-04-03T09:09:40;3.90;;;2.10;;
13651;SDS011;6899;51.546;6.912;2023-04-03T09:12:14;5.55;;;1.90;;
13651;SDS011;6899;51.546;6.912;2023-04-03T09:14:51;4.63;;;1.60;;
13651;SDS011;6899;51.546;6.912;2023-04-03T09:17:26;3.55;;;1.50;;
13651;SDS011;6899;51.546;6.912;2023-04-03T09:20:07;3.38;;;1.60;;
13651;SDS011;6899;51.546;6.912;2023-04-03T09:22:41;4.10;;;1.52;;
13651;SDS011;6899;51.546;6.912;2023-04-03T09:25:10;4.43;;;2.00;;
13651;SDS011;6899;51.546;6.912;2023-04-03T09:27:41;5.25;;;1.80;;
13651;SDS011;6899;51.546;6.912;2023-04-03T09:30:12;2.28;;;1.48;;
13651;SDS011;6899;51.546;6.912;2023-04-03T09:32:41;2.95;;;1.90;;
13651;SDS011;6899;51.546;6.912;2023-04-03T09:35:15;4.32;;;1.70;;
13651;SDS011;6899;51.546;6.912;2023-04-03T09:37:45;4.53;;;1.65;;
13651;SDS011;6899;51.546;6.912;2023-04-03T09:43:03;3.10;;;1.80;;
13651;SDS011;6899;51.546;6.912;2023-04-03T09:45:49;5.30;;;1.50;;
13651;SDS011;6899;51.546;6.912;2023-04-03T09:48:17;2.53;;;1.45;;
13651;SDS011;6899;51.546;6.912;2023-04-03T09:50:52;4.20;;;1.88;;
13651;SDS011;6899;51.546;6.912;2023-04-03T09:53:31;1.67;;;0.98;;
13651;SDS011;6899;51.546;6.912;2023-04-03T09:56:01;3.80;;;1.48;;
13651;SDS011;6899;51.546;6.912;2023-04-03T09:58:31;1.98;;;1.13;;
13651;SDS011;6899;51.546;6.912;2023-04-03T10:01:01;4.47;;;1.38;;
13651;SDS011;6899;51.546;6.912;2023-04-03T10:03:29;3.22;;;1.30;;
13651;SDS011;6899;51.546;6.912;2023-04-03T10:05:59;2.42;;;1.17;;
13651;SDS011;6899;51.546;6.912;2023-04-03T10:08:28;1.95;;;1.17;;
13651;SDS011;6899;51.546;6.912;2023-04-03T10:11:06;2.85;;;1.20;;
13651;SDS011;6899;51.546;6.912;2023-04-03T10:13:52;2.17;;;1.05;;
13651;SDS011;6899;51.546;6.912;2023-04-03T10:16:27;2.38;;;1.60;;
13651;SDS011;6899;51.546;6.912;2023-04-03T10:21:57;2.22;;;1.50;;
13651;SDS011;6899;51.546;6.912;2023-04-03T10:24:31;3.90;;;1.50;;
13651;SDS011;6899;51.546;6.912;2023-04-03T10:27:05;1.95;;;1.23;;
13651;SDS011;6899;51.546;6.912;2023-04-03T10:29:40;2.83;;;1.15;;
13651;SDS011;6899;51.546;6.912;2023-04-03T10:35:18;1.38;;;1.20;;
13651;SDS011;6899;51.546;6.912;2023-04-03T10:37:57;3.33;;;1.50;;
13651;SDS011;6899;51.546;6.912;2023-04-03T10:40:30;4.65;;;1.52;;
13651;SDS011;6899;51.546;6.912;2023-04-03T10:43:06;2.80;;;1.42;;
13651;SDS011;6899;51.546;6.912;2023-04-03T10:45:49;2.17;;;1.23;;
13651;SDS011;6899;51.546;6.912;2023-04-03T10:48:25;4.30;;;1.40;;
13651;SDS011;6899;51.546;6.912;2023-04-03T10:51:16;2.00;;;1.45;;
13651;SDS011;6899;51.546;6.912;2023-04-03T10:53:52;4.68;;;1.50;;
13651;SDS011;6899;51.546;6.912;2023-04-03T10:56:29;1.95;;;1.27;;
13651;SDS011;6899;51.546;6.912;2023-04-03T10:58:59;3.53;;;1.77;;
13651;SDS011;6899;51.546;6.912;2023-04-03T11:01:36;5.28;;;1.77;;
13651;SDS011;6899;51.546;6.912;2023-04-03T11:04:07;4.82;;;1.90;;
13651;SDS011;6899;51.546;6.912;2023-04-03T11:06:37;4.75;;;1.77;;
13651;SDS011;6899;51.546;6.912;2023-04-03T11:09:09;2.95;;;1.52;;
13651;SDS011;6899;51.546;6.912;2023-04-03T11:11:43;2.13;;;1.40;;
13651;SDS011;6899;51.546;6.912;2023-04-03T11:14:13;2.85;;;1.25;;
13651;SDS011;6899;51.546;6.912;2023-04-03T11:16:50;2.33;;;1.40;;
13651;SDS011;6899;51.546;6.912;2023-04-03T11:19:24;4.07;;;1.63;;
13651;SDS011;6899;51.546;6.912;2023-04-03T11:22:01;1.92;;;1.35;;
13651;SDS011;6899;51.546;6.912;2023-04-03T11:24:32;2.85;;;1.45;;
13651;SDS011;6899;51.546;6.912;2023-04-03T11:27:03;2.15;;;1.50;;
13651;SDS011;6899;51.546;6.912;2023-04-03T11:29:32;3.85;;;1.58;;
13651;SDS011;6899;51.546;6.912;2023-04-03T11:32:09;2.03;;;1.42;;
13651;SDS011;6899;51.546;6.912;2023-04-03T11:34:47;2.53;;;1.13;;
13651;SDS011;6899;51.546;6.912;2023-04-03T11:37:17;3.60;;;1.58;;
13651;SDS011;6899;51.546;6.912;2023-04-03T11:39:53;2.42;;;1.50;;
13651;SDS011;6899;51.546;6.912;2023-04-03T11:42:24;2.97;;;1.58;;
13651;SDS011;6899;51.546;6.912;2023-04-03T11:47:51;4.40;;;1.55;;
13651;SDS011;6899;51.546;6.912;2023-04-03T11:50:38;3.20;;;1.40;;
13651;SDS011;6899;51.546;6.912;2023-04-03T11:53:25;3.28;;;1.30;;
13651;SDS011;6899;51.546;6.912;2023-04-03T11:55:56;3.30;;;1.65;;
13651;SDS011;6899;51.546;6.912;2023-04-03T11:58:25;2.05;;;1.45;;
13651;SDS011;6899;51.546;6.912;2023-04-03T12:00:54;3.33;;;1.63;;
13651;SDS011;6899;51.546;6.912;2023-04-03T12:12:34;3.20;;;1.25;;
13651;SDS011;6899;51.546;6.912;2023-04-03T12:15:16;3.40;;;1.75;;
13651;SDS011;6899;51.546;6.912;2023-04-03T12:17:47;2.67;;;1.42;;
13651;SDS011;6899;51.546;6.912;2023-04-03T12:23:27;5.50;;;1.70;;
13651;SDS011;6899;51.546;6.912;2023-04-03T12:26:03;4.40;;;1.60;;
13651;SDS011;6899;51.546;6.912;2023-04-03T12:28:44;3.63;;;1.40;;
13651;SDS011;6899;51.546;6.912;2023-04-03T12:31:13;3.92;;;1.63;;
13651;SDS011;6899;51.546;6.912;2023-04-03T12:33:56;2.20;;;1.48;;
13651;SDS011;6899;51.546;6.912;2023-04-03T12:36:35;1.70;;;1.13;;
13651;SDS011;6899;51.546;6.912;2023-04-03T12:42:19;2.72;;;1.58;;
13651;SDS011;6899;51.546;6.912;2023-04-03T12:45:00;4.00;;;1.50;;
13651;SDS011;6899;51.546;6.912;2023-04-03T12:47:35;3.28;;;1.48;;
13651;SDS011;6899;51.546;6.912;2023-04-03T12:50:13;2.78;;;1.52;;
13651;SDS011;6899;51.546;6.912;2023-04-03T12:52:47;3.47;;;1.20;;
13651;SDS011;6899;51.546;6.912;2023-04-03T12:55:21;2.97;;;1.73;;
13651;SDS011;6899;51.546;6.912;2023-04-03T12:57:49;2.85;;;1.52;;
13651;SDS011;6899;51.546;6.912;2023-04-03T13:00:19;3.00;;;1.65;;
13651;SDS011;6899;51.546;6.912;2023-04-03T13:02:52;2.83;;;1.38;;
13651;SDS011;6899;51.546;6.912;2023-04-03T13:05:21;2.08;;;1.40;;
13651;SDS011;6899;51.546;6.912;2023-04-03T13:07:49;4.72;;;1.90;;
13651;SDS011;6899;51.546;6.912;2023-04-03T13:10:19;3.00;;;1.73;;
13651;SDS011;6899;51.546;6.912;2023-04-03T13:12:49;1.85;;;1.30;;
13651;SDS011;6899;51.546;6.912;2023-04-03T13:15:19;4.18;;;1.85;;
13651;SDS011;6899;51.546;6.912;2023-04-03T13:17:48;3.38;;;1.98;;
13651;SDS011;6899;51.546;6.912;2023-04-03T13:20:19;5.43;;;1.45;;
13651;SDS011;6899;51.546;6.912;2023-04-03T13:22:49;2.50;;;1.40;;
13651;SDS011;6899;51.546;6.912;2023-04-03T13:25:22;2.65;;;1.40;;
13651;SDS011;6899;51.546;6.912;2023-04-03T13:27:51;2.85;;;1.23;;
13651;SDS011;6899;51.546;6.912;2023-04-03T13:30:24;2.38;;;1.40;;
13651;SDS011;6899;51.546;6.912;2023-04-03T13:32:54;5.20;;;1.40;;
13651;SDS011;6899;51.546;6.912;2023-04-03T13:35:31;2.80;;;1.30;;
13651;SDS011;6899;51.546;6.912;2023-04-03T13:38:02;3.50;;;1.50;;
13651;SDS011;6899;51.546;6.912;2023-04-03T13:40:32;1.95;;;1.45;;
13651;SDS011;6899;51.546;6.912;2023-04-03T13:43:05;2.42;;;1.48;;
13651;SDS011;6899;51.546;6.912;2023-04-03T13:45:53;3.05;;;1.38;;
13651;SDS011;6899;51.546;6.912;2023-04-03T13:48:25;4.00;;;1.90;;
13651;SDS011;6899;51.546;6.912;2023-04-03T13:50:57;3.78;;;1.52;;
13651;SDS011;6899;51.546;6.912;2023-04-03T13:53:26;3.95;;;1.55;;
13651;SDS011;6899;51.546;6.912;2023-04-03T13:55:56;1.95;;;1.40;;
13651;SDS011;6899;51.546;6.912;2023-04-03T13:58:28;2.17;;;1.42;;
13651;SDS011;6899;51.546;6.912;2023-04-03T14:00:58;3.63;;;1.73;;
13651;SDS011;6899;51.546;6.912;2023-04-03T14:03:28;2.92;;;1.40;;
13651;SDS011;6899;51.546;6.912;2023-04-03T14:08:35;1.80;;;1.33;;
13651;SDS011;6899;51.546;6.912;2023-04-03T14:11:02;1.90;;;1.50;;
13651;SDS011;6899;51.546;6.912;2023-04-03T14:13:31;6.53;;;1.90;;
13651;SDS011;6899;51.546;6.912;2023-04-03T14:16:01;2.97;;;1.42;;
13651;SDS011;6899;51.546;6.912;2023-04-03T14:18:31;1.75;;;1.40;;
13651;SDS011;6899;51.546;6.912;2023-04-03T14:20:58;3.00;;;1.20;;
13651;SDS011;6899;51.546;6.912;2023-04-03T14:23:24;1.98;;;1.30;;
13651;SDS011;6899;51.546;6.912;2023-04-03T14:25:51;1.60;;;1.30;;
13651;SDS011;6899;51.546;6.912;2023-04-03T14:28:20;3.05;;;1.65;;
13651;SDS011;6899;51.546;6.912;2023-04-03T14:30:50;4.97;;;1.80;;
13651;SDS011;6899;51.546;6.912;2023-04-03T14:33:18;3.28;;;1.73;;
13651;SDS011;6899;51.546;6.912;2023-04-03T14:35:47;3.60;;;1.60;;
13651;SDS011;6899;51.546;6.912;2023-04-03T14:38:21;4.38;;;1.90;;
13651;SDS011;6899;51.546;6.912;2023-04-03T14:40:50;1.50;;;1.27;;
13651;SDS011;6899;51.546;6.912;2023-04-03T14:43:18;4.07;;;1.50;;
13651;SDS011;6899;51.546;6.912;2023-04-03T14:45:45;5.55;;;1.70;;
13651;SDS011;6899;51.546;6.912;2023-04-03T14:48:15;4.03;;;1.83;;
13651;SDS011;6899;51.546;6.912;2023-04-03T14:50:45;3.00;;;1.50;;
13651;SDS011;6899;51.546;6.912;2023-04-03T14:53:13;3.30;;;1.77;;
13651;SDS011;6899;51.546;6.912;2023-04-03T14:55:41;3.97;;;1.85;;
13651;SDS011;6899;51.546;6.912;2023-04-03T14:58:12;3.42;;;1.63;;
13651;SDS011;6899;51.546;6.912;2023-04-03T15:00:41;3.50;;;1.83;;
13651;SDS011;6899;51.546;6.912;2023-04-03T15:03:11;5.13;;;1.90;;
13651;SDS011;6899;51.546;6.912;2023-04-03T15:05:43;2.10;;;1.35;;
13651;SDS011;6899;51.546;6.912;2023-04-03T15:08:15;4.05;;;1.70;;
13651;SDS011;6899;51.546;6.912;2023-04-03T15:10:49;3.75;;;1.50;;
13651;SDS011;6899;51.546;6.912;2023-04-03T15:13:20;4.18;;;1.70;;
13651;SDS011;6899;51.546;6.912;2023-04-03T15:16:00;2.47;;;1.70;;
13651;SDS011;6899;51.546;6.912;2023-04-03T15:18:30;3.75;;;1.80;;
13651;SDS011;6899;51.546;6.912;2023-04-03T15:21:02;4.18;;;1.70;;
13651;SDS011;6899;51.546;6.912;2023-04-03T15:23:32;4.75;;;2.17;;
13651;SDS011;6899;51.546;6.912;2023-04-03T15:25:59;5.03;;;1.73;;
13651;SDS011;6899;51.546;6.912;2023-04-03T15:28:28;5.20;;;1.80;;
13651;SDS011;6899;51.546;6.912;2023-04-03T15:31:07;4.35;;;1.95;;
13651;SDS011;6899;51.546;6.912;2023-04-03T15:33:40;3.15;;;2.10;;
13651;SDS011;6899;51.546;6.912;2023-04-03T15:36:08;4.63;;;1.70;;
13651;SDS011;6899;51.546;6.912;2023-04-03T15:38:39;3.78;;;1.80;;
13651;SDS011;6899;51.546;6.912;2023-04-03T15:41:06;3.65;;;1.80;;
13651;SDS011;6899;51.546;6.912;2023-04-03T15:43:33;4.78;;;1.73;;
13651;SDS011;6899;51.546;6.912;2023-04-03T15:46:01;2.90;;;1.45;;